Inkster, North Dakota
Current Conditions -  °F | °C
As of 5:58 PM on Friday 24 Oct 2014 (Local Time) from KRDR Reporting Station
Clear Clear  
Wind Chill: 66°   Ceiling: Unl
Heat Index: 66°   Visibility: 10mi
Dew Point: 31°   Wind: 9mph
Humidity: 27%   Direction: 280°W
Pressure: 29.8"   Gusts: NA
Location:  48.15°N, 97.64°W
Report Text: KRDR 242258Z AUTO 28008KT 10SM CLR 19/M01 A2980 RMK AO2 PK WND 31027/05 SLP098 T01871007
Loading
Personal Weather Stations






























Interactive Weather Map
Tropical Storm Tracking
New forecast layout! Learn more

10-Day Weather Forecast

Advertisements
Track Severe Weather on mobile